Time;durP1;ratioP1;P1;durP2;ratioP2;P2;SDS_P1;SDS_P2;PMS_P1;PMS_P2;Temp;Humidity;BMP_temperature;BMP_pressure;BME280_temperature;BME280_humidity;BME280_pressure;Samples;Min_cycle;Max_cycle;Signal;HPM_P1;HPM_P2
2023/09/26 00:00:20;;;;;;;14.02;12.60;;;;;;;;;;5069025;28;20027;-61
2023/09/26 00:02:46;;;;;;;16.38;14.38;;;;;;;;;;5070113;28;20456;-61
2023/09/26 00:05:12;;;;;;;16.33;13.20;;;;;;;;;;5069434;28;20024;-62
2023/09/26 00:07:38;;;;;;;17.23;13.30;;;;;;;;;;5070299;28;20399;-61
2023/09/26 00:10:04;;;;;;;12.85;11.32;;;;;;;;;;5069613;28;20016;-61
2023/09/26 00:12:29;;;;;;;13.45;11.18;;;;;;;;;;5070490;28;20009;-62
2023/09/26 00:14:54;;;;;;;14.73;10.90;;;;;;;;;;5068045;28;20517;-60
2023/09/26 00:17:19;;;;;;;14.30;11.63;;;;;;;;;;5070743;28;20048;-62
2023/09/26 00:19:44;;;;;;;15.35;13.75;;;;;;;;;;5070183;28;20454;-61
2023/09/26 00:22:10;;;;;;;19.58;14.82;;;;;;;;;;5068341;28;20064;-61
2023/09/26 00:24:35;;;;;;;17.42;15.57;;;;;;;;;;5068637;28;20025;-61
2023/09/26 00:27:00;;;;;;;14.88;13.20;;;;;;;;;;5067460;28;20036;-61
2023/09/26 00:29:25;;;;;;;19.20;16.17;;;;;;;;;;5070099;28;20440;-61
2023/09/26 00:31:53;;;;;;;23.87;16.47;;;;;;;;;;5068606;28;20546;-61
2023/09/26 00:34:19;;;;;;;22.43;16.57;;;;;;;;;;5069885;28;20466;-61
2023/09/26 00:36:44;;;;;;;15.65;13.98;;;;;;;;;;5068445;28;20505;-61
2023/09/26 00:39:10;;;;;;;16.57;14.50;;;;;;;;;;5070373;28;20028;-62
2023/09/26 00:41:35;;;;;;;17.77;15.60;;;;;;;;;;5072568;28;20047;-61
2023/09/26 00:44:00;;;;;;;18.93;13.87;;;;;;;;;;5076554;28;20024;-61
2023/09/26 00:46:25;;;;;;;15.65;13.18;;;;;;;;;;5075736;28;20446;-61
2023/09/26 00:48:50;;;;;;;16.27;13.43;;;;;;;;;;5076428;28;20137;-62
2023/09/26 00:51:15;;;;;;;20.87;16.10;;;;;;;;;;5075027;28;20041;-61
2023/09/26 00:53:41;;;;;;;18.73;15.57;;;;;;;;;;5076313;28;20064;-62
2023/09/26 00:56:07;;;;;;;16.13;13.98;;;;;;;;;;5075074;28;20082;-62
2023/09/26 00:58:33;;;;;;;15.63;13.45;;;;;;;;;;5076242;28;20020;-62
2023/09/26 01:00:58;;;;;;;12.07;10.88;;;;;;;;;;5075288;28;20376;-62
2023/09/26 01:03:23;;;;;;;18.03;15.00;;;;;;;;;;5075968;28;20012;-67
2023/09/26 01:05:49;;;;;;;17.77;15.70;;;;;;;;;;5074828;28;20459;-62
2023/09/26 01:08:14;;;;;;;18.90;14.27;;;;;;;;;;5076518;28;20025;-61
2023/09/26 01:10:39;;;;;;;19.15;15.88;;;;;;;;;;5075226;28;20033;-62
2023/09/26 01:13:05;;;;;;;15.65;14.00;;;;;;;;;;5075729;28;21552;-68
2023/09/26 01:15:38;;;;;;;18.13;14.43;;;;;;;;;;5073988;28;20097;-61
2023/09/26 01:18:08;;;;;;;16.65;15.07;;;;;;;;;;5076357;28;20085;-61
2023/09/26 01:20:34;;;;;;;15.93;14.27;;;;;;;;;;5075062;28;20101;-61
2023/09/26 01:23:01;;;;;;;16.35;14.70;;;;;;;;;;5075324;28;20115;-61
2023/09/26 01:25:26;;;;;;;17.33;15.10;;;;;;;;;;5075236;28;20082;-61
2023/09/26 01:27:51;;;;;;;17.30;13.60;;;;;;;;;;5076498;28;20024;-61
2023/09/26 01:30:16;;;;;;;19.08;16.35;;;;;;;;;;5074891;28;20091;-61
2023/09/26 01:32:42;;;;;;;21.53;15.77;;;;;;;;;;5075514;28;20072;-62
2023/09/26 01:35:07;;;;;;;18.92;16.67;;;;;;;;;;5074943;28;20013;-62
2023/09/26 01:37:33;;;;;;;16.60;14.90;;;;;;;;;;5076075;28;20111;-62
2023/09/26 01:39:58;;;;;;;15.07;13.18;;;;;;;;;;5075034;28;20027;-62
2023/09/26 01:42:23;;;;;;;15.17;13.67;;;;;;;;;;5075455;28;20020;-71
2023/09/26 01:44:48;;;;;;;18.58;15.48;;;;;;;;;;5075522;28;20013;-62
2023/09/26 01:47:17;;;;;;;14.27;12.87;;;;;;;;;;5074944;28;20565;-60
2023/09/26 01:49:43;;;;;;;17.67;15.57;;;;;;;;;;5075986;28;20059;-71
2023/09/26 01:52:09;;;;;;;14.55;13.10;;;;;;;;;;5072745;28;20492;-60
2023/09/26 01:54:34;;;;;;;15.45;13.85;;;;;;;;;;5072963;28;20027;-61
2023/09/26 01:56:59;;;;;;;15.83;14.17;;;;;;;;;;5071302;28;20150;-61
2023/09/26 01:59:24;;;;;;;15.13;13.40;;;;;;;;;;5072733;28;20021;-61
2023/09/26 02:01:49;;;;;;;20.20;15.50;;;;;;;;;;5070956;28;20122;-61
2023/09/26 02:04:14;;;;;;;24.95;17.42;;;;;;;;;;5073460;28;20062;-61
2023/09/26 02:06:39;;;;;;;21.63;13.57;;;;;;;;;;5070939;28;20430;-61
2023/09/26 02:09:05;;;;;;;12.77;11.52;;;;;;;;;;5073007;28;20936;-61
2023/09/26 02:11:30;;;;;;;16.50;12.73;;;;;;;;;;5070994;28;20041;-60
2023/09/26 02:13:55;;;;;;;15.27;12.47;;;;;;;;;;5072403;28;20460;-60
2023/09/26 02:16:21;;;;;;;15.07;13.50;;;;;;;;;;5071255;28;20094;-60
2023/09/26 02:18:46;;;;;;;23.23;13.98;;;;;;;;;;5070891;28;20090;-68
2023/09/26 02:21:15;;;;;;;17.05;15.23;;;;;;;;;;5070795;28;20033;-61
2023/09/26 02:23:40;;;;;;;;;;;;;;;;;;5073022;28;20535;-60
2023/09/26 02:26:05;;;;;;;17.38;13.73;;;;;;;;;;5070621;28;20395;-60
2023/09/26 02:28:30;;;;;;;16.57;13.27;;;;;;;;;;5072294;28;20099;-60
2023/09/26 02:30:55;;;;;;;20.33;14.88;;;;;;;;;;5070621;28;20033;-59
2023/09/26 02:33:20;;;;;;;17.55;12.52;;;;;;;;;;5072205;28;20113;-59
2023/09/26 02:35:46;;;;;;;17.58;14.43;;;;;;;;;;5070460;28;20064;-59
2023/09/26 02:38:11;;;;;;;15.10;13.70;;;;;;;;;;5072352;28;20024;-59
2023/09/26 02:40:36;;;;;;;15.93;13.40;;;;;;;;;;5070397;28;20044;-59
2023/09/26 02:43:01;;;;;;;17.33;12.73;;;;;;;;;;5072233;28;20008;-60
2023/09/26 02:45:26;;;;;;;18.13;13.30;;;;;;;;;;5070749;28;20451;-59
2023/09/26 02:47:51;;;;;;;15.73;14.13;;;;;;;;;;5072053;28;20065;-59
2023/09/26 02:50:17;;;;;;;18.77;14.80;;;;;;;;;;5070098;28;20047;-59
2023/09/26 02:52:43;;;;;;;15.77;13.77;;;;;;;;;;5071947;28;20103;-59
2023/09/26 02:55:09;;;;;;;14.13;12.73;;;;;;;;;;5070129;28;20142;-62
2023/09/26 02:57:34;;;;;;;14.60;13.27;;;;;;;;;;5071590;28;20025;-60
2023/09/26 02:59:59;;;;;;;17.88;14.82;;;;;;;;;;5069793;28;20025;-59
2023/09/26 03:02:24;;;;;;;15.67;14.07;;;;;;;;;;5071977;28;20479;-59
2023/09/26 03:04:49;;;;;;;14.00;12.38;;;;;;;;;;5070209;28;20423;-59
2023/09/26 03:07:15;;;;;;;19.55;13.48;;;;;;;;;;5070197;28;20113;-59
2023/09/26 03:09:40;;;;;;;15.80;14.30;;;;;;;;;;5071224;28;20028;-59
2023/09/26 03:12:06;;;;;;;15.40;13.73;;;;;;;;;;5069550;28;20123;-60
2023/09/26 03:14:31;;;;;;;13.95;12.43;;;;;;;;;;5071194;28;20508;-61
2023/09/26 03:16:56;;;;;;;15.73;13.90;;;;;;;;;;5069636;28;20062;-60
2023/09/26 03:19:23;;;;;;;19.63;15.40;;;;;;;;;;5071074;28;20063;-61
2023/09/26 03:21:49;;;;;;;18.23;12.85;;;;;;;;;;5069317;28;20039;-60
2023/09/26 03:24:14;;;;;;;19.38;13.80;;;;;;;;;;5071407;28;20380;-60
2023/09/26 03:26:39;;;;;;;14.40;11.98;;;;;;;;;;5069118;28;20071;-60
2023/09/26 03:29:04;;;;;;;14.32;12.93;;;;;;;;;;5071191;28;20483;-60
2023/09/26 03:31:30;;;;;;;16.70;11.77;;;;;;;;;;5069734;28;20045;-68
2023/09/26 03:33:55;;;;;;;19.02;15.45;;;;;;;;;;5070667;28;20051;-60
2023/09/26 03:36:20;;;;;;;13.73;12.13;;;;;;;;;;5069654;28;20037;-60
2023/09/26 03:38:46;;;;;;;14.73;12.30;;;;;;;;;;5070823;28;20515;-60
2023/09/26 03:41:11;;;;;;;14.93;13.43;;;;;;;;;;5069415;28;20032;-60
2023/09/26 03:43:36;;;;;;;13.67;12.33;;;;;;;;;;5070294;28;20024;-60
2023/09/26 03:46:02;;;;;;;14.05;12.73;;;;;;;;;;5069408;28;20451;-59
2023/09/26 03:48:28;;;;;;;12.57;11.27;;;;;;;;;;5069696;28;20020;-59
2023/09/26 03:50:53;;;;;;;15.77;12.17;;;;;;;;;;5068814;28;20483;-59
2023/09/26 03:53:18;;;;;;;14.57;12.57;;;;;;;;;;5070984;28;20947;-60
2023/09/26 03:55:43;;;;;;;22.17;15.43;;;;;;;;;;5068845;28;20458;-60
2023/09/26 03:58:08;;;;;;;16.47;13.47;;;;;;;;;;5070393;28;20095;-61
2023/09/26 04:00:33;;;;;;;17.80;15.55;;;;;;;;;;5068794;28;20454;-62
2023/09/26 04:02:59;;;;;;;14.77;13.17;;;;;;;;;;5070874;28;20149;-62
2023/09/26 04:05:25;;;;;;;14.82;13.18;;;;;;;;;;5068734;28;20450;-61
2023/09/26 04:07:50;;;;;;;18.77;15.07;;;;;;;;;;5070177;28;20039;-65
2023/09/26 04:10:15;;;;;;;22.58;15.68;;;;;;;;;;5069088;28;20047;-61
2023/09/26 04:12:41;;;;;;;20.15;15.13;;;;;;;;;;5069648;28;20024;-60
2023/09/26 04:15:06;;;;;;;18.17;14.13;;;;;;;;;;5067402;28;20065;-60
2023/09/26 04:17:31;;;;;;;16.95;15.35;;;;;;;;;;5069852;28;20297;-59
2023/09/26 04:19:57;;;;;;;17.60;15.27;;;;;;;;;;5067109;28;20028;-61
2023/09/26 04:22:22;;;;;;;23.80;16.88;;;;;;;;;;5070121;28;20021;-59
2023/09/26 04:24:47;;;;;;;18.00;16.20;;;;;;;;;;5069998;28;20395;-60
2023/09/26 04:27:12;;;;;;;21.08;16.77;;;;;;;;;;5068544;28;20466;-59
2023/09/26 04:29:38;;;;;;;16.27;14.15;;;;;;;;;;5070287;28;20468;-58
2023/09/26 04:32:03;;;;;;;16.83;15.15;;;;;;;;;;5067602;28;20086;-58
2023/09/26 04:34:29;;;;;;;21.77;15.33;;;;;;;;;;5074813;28;20057;-57
2023/09/26 04:36:54;;;;;;;17.63;14.50;;;;;;;;;;5068223;28;21035;-57
2023/09/26 04:39:19;;;;;;;15.57;13.57;;;;;;;;;;5068848;28;20013;-57
2023/09/26 04:41:45;;;;;;;13.02;11.73;;;;;;;;;;5068123;28;20729;-58
2023/09/26 04:44:10;;;;;;;17.60;13.63;;;;;;;;;;5070416;28;20148;-57
2023/09/26 04:46:36;;;;;;;15.38;13.75;;;;;;;;;;5068487;28;20190;-58
2023/09/26 04:49:01;;;;;;;28.07;14.30;;;;;;;;;;5070063;28;20416;-57
2023/09/26 04:51:26;;;;;;;18.00;15.20;;;;;;;;;;5068728;28;20032;-58
2023/09/26 04:53:51;;;;;;;16.25;14.18;;;;;;;;;;5070046;28;20020;-58
2023/09/26 04:56:16;;;;;;;16.90;15.20;;;;;;;;;;5068287;28;20029;-58
2023/09/26 04:58:41;;;;;;;16.88;15.23;;;;;;;;;;5069856;28;20542;-58
2023/09/26 05:01:15;;;;;;;16.83;14.93;;;;;;;;;;5068742;28;20036;-58
2023/09/26 05:03:43;;;;;;;18.55;15.43;;;;;;;;;;5057352;28;20047;-58
2023/09/26 05:06:09;;;;;;;22.70;17.00;;;;;;;;;;5055035;28;20033;-60
2023/09/26 05:08:34;;;;;;;18.25;16.52;;;;;;;;;;5058633;28;20028;-64
2023/09/26 05:10:59;;;;;;;18.30;13.77;;;;;;;;;;5056341;28;20086;-57
2023/09/26 05:13:24;;;;;;;14.57;13.07;;;;;;;;;;5057285;28;20052;-58
2023/09/26 05:15:50;;;;;;;22.58;14.18;;;;;;;;;;5058748;28;20033;-58
2023/09/26 05:18:16;;;;;;;18.48;13.85;;;;;;;;;;5060383;28;20028;-58
2023/09/26 05:20:41;;;;;;;17.55;14.35;;;;;;;;;;5056629;28;20040;-59
2023/09/26 05:23:06;;;;;;;15.53;13.03;;;;;;;;;;5060265;28;20096;-58
2023/09/26 05:25:35;;;;;;;22.57;14.93;;;;;;;;;;5057955;28;20040;-58
2023/09/26 05:28:00;;;;;;;15.50;13.98;;;;;;;;;;5061218;28;20487;-58
2023/09/26 05:30:25;;;;;;;20.48;12.45;;;;;;;;;;5061978;28;20060;-58
2023/09/26 05:32:51;;;;;;;15.10;13.60;;;;;;;;;;5066354;28;20487;-58
2023/09/26 05:35:16;;;;;;;15.27;13.73;;;;;;;;;;5071767;28;21039;-57
2023/09/26 05:37:41;;;;;;;15.00;13.10;;;;;;;;;;5073601;28;20438;-57
2023/09/26 05:40:06;;;;;;;19.77;13.63;;;;;;;;;;5071572;28;20083;-57
2023/09/26 05:42:32;;;;;;;30.45;16.25;;;;;;;;;;5072292;28;20021;-67
2023/09/26 05:44:57;;;;;;;15.15;13.73;;;;;;;;;;5070718;28;20236;-57
2023/09/26 05:47:23;;;;;;;21.35;15.45;;;;;;;;;;5072504;28;20046;-58
2023/09/26 05:49:51;;;;;;;17.87;15.80;;;;;;;;;;5072464;28;20024;-57
2023/09/26 05:52:17;;;;;;;14.45;12.85;;;;;;;;;;5071797;28;20442;-58
2023/09/26 05:54:42;;;;;;;16.50;14.75;;;;;;;;;;5072949;28;20042;-58
2023/09/26 05:57:08;;;;;;;17.83;13.32;;;;;;;;;;5071695;28;20033;-58
2023/09/26 05:59:33;;;;;;;17.40;14.60;;;;;;;;;;5073285;28;20016;-58
2023/09/26 06:01:58;;;;;;;16.17;14.25;;;;;;;;;;5071031;28;20028;-58
2023/09/26 06:04:23;;;;;;;15.50;14.03;;;;;;;;;;5067821;28;20104;-60
2023/09/26 06:06:49;;;;;;;19.77;14.95;;;;;;;;;;5067101;28;20045;-58
2023/09/26 06:09:14;;;;;;;16.90;15.20;;;;;;;;;;5072806;28;20425;-59
2023/09/26 06:11:39;;;;;;;16.75;14.23;;;;;;;;;;5070639;28;20432;-57
2023/09/26 06:14:05;;;;;;;18.93;14.60;;;;;;;;;;5072989;28;20028;-57
2023/09/26 06:16:30;;;;;;;17.10;13.55;;;;;;;;;;5071497;28;20451;-63
2023/09/26 06:18:56;;;;;;;18.98;13.95;;;;;;;;;;5072150;28;20020;-57
2023/09/26 06:21:21;;;;;;;17.40;13.68;;;;;;;;;;5071554;28;20637;-57
2023/09/26 06:23:48;;;;;;;15.63;13.75;;;;;;;;;;5072414;28;20009;-58
2023/09/26 06:26:13;;;;;;;15.35;12.80;;;;;;;;;;5070762;28;20500;-58
2023/09/26 06:28:38;;;;;;;17.02;13.05;;;;;;;;;;5072452;28;20108;-58
2023/09/26 06:31:07;;;;;;;20.40;14.17;;;;;;;;;;5071368;28;20029;-58
2023/09/26 06:33:32;;;;;;;11.93;10.70;;;;;;;;;;5071778;28;20032;-58
2023/09/26 06:35:58;;;;;;;18.17;14.07;;;;;;;;;;5071109;28;20460;-68
2023/09/26 06:38:23;;;;;;;19.05;12.80;;;;;;;;;;5072114;28;20971;-58
2023/09/26 06:40:48;;;;;;;15.57;12.07;;;;;;;;;;5070391;28;20029;-58
2023/09/26 06:43:13;;;;;;;13.05;11.68;;;;;;;;;;5072739;28;20056;-58
2023/09/26 06:45:39;;;;;;;13.43;11.33;;;;;;;;;;5070692;28;20116;-58
2023/09/26 06:48:05;;;;;;;12.70;11.45;;;;;;;;;;5072082;28;20431;-58
2023/09/26 06:50:30;;;;;;;15.23;10.77;;;;;;;;;;5071009;28;20035;-58
2023/09/26 06:52:55;;;;;;;14.13;11.45;;;;;;;;;;5071627;28;20020;-58
2023/09/26 06:55:20;;;;;;;12.13;10.90;;;;;;;;;;5070437;28;20024;-58
2023/09/26 06:57:45;;;;;;;20.90;11.90;;;;;;;;;;5072092;28;20375;-59
2023/09/26 07:00:16;;;;;;;12.43;10.95;;;;;;;;;;5070514;28;20446;-58
2023/09/26 07:02:42;;;;;;;15.20;9.82;;;;;;;;;;5071572;28;20433;-59
2023/09/26 07:05:08;;;;;;;13.25;11.85;;;;;;;;;;5070606;28;20017;-58
2023/09/26 07:07:34;;;;;;;14.55;12.80;;;;;;;;;;5071994;28;20487;-59
2023/09/26 07:09:59;;;;;;;12.80;9.90;;;;;;;;;;5069645;28;20044;-58
2023/09/26 07:12:26;;;;;;;11.67;10.37;;;;;;;;;;5071875;28;20052;-58
2023/09/26 07:14:51;;;;;;;13.93;10.35;;;;;;;;;;5071208;28;20033;-58
2023/09/26 07:17:16;;;;;;;10.70;9.50;;;;;;;;;;5069878;28;20557;-58
2023/09/26 07:19:41;;;;;;;11.20;10.05;;;;;;;;;;5071416;28;20483;-58
2023/09/26 07:22:06;;;;;;;10.60;9.52;;;;;;;;;;5069788;28;20028;-57
2023/09/26 07:24:32;;;;;;;15.10;9.35;;;;;;;;;;5071291;28;20048;-62
2023/09/26 07:26:57;;;;;;;11.50;10.10;;;;;;;;;;5069633;28;20479;-57
2023/09/26 07:29:23;;;;;;;13.75;11.45;;;;;;;;;;5071366;28;20111;-58
2023/09/26 07:31:48;;;;;;;11.52;8.18;;;;;;;;;;5069031;28;20036;-58
2023/09/26 07:34:13;;;;;;;10.70;9.60;;;;;;;;;;5071040;28;20040;-58
2023/09/26 07:36:39;;;;;;;11.80;10.55;;;;;;;;;;5069463;28;20036;-58
2023/09/26 07:39:05;;;;;;;10.77;8.73;;;;;;;;;;5070965;28;20406;-58
2023/09/26 07:41:30;;;;;;;10.43;9.23;;;;;;;;;;5069491;28;20033;-58
2023/09/26 07:43:56;;;;;;;14.65;9.50;;;;;;;;;;5071039;28;20017;-58
2023/09/26 07:46:21;;;;;;;10.57;8.93;;;;;;;;;;5069253;28;20037;-58
2023/09/26 07:48:47;;;;;;;10.73;9.63;;;;;;;;;;5070949;28;20024;-58
2023/09/26 07:51:12;;;;;;;11.07;9.18;;;;;;;;;;5068907;28;20405;-58
2023/09/26 07:53:38;;;;;;;12.48;9.23;;;;;;;;;;5070404;28;20048;-57
2023/09/26 07:56:03;;;;;;;10.40;9.40;;;;;;;;;;5069529;28;20033;-58
2023/09/26 07:58:28;;;;;;;12.77;9.90;;;;;;;;;;5071039;28;20024;-58
2023/09/26 08:00:54;;;;;;;14.37;9.87;;;;;;;;;;5068736;28;20382;-58
2023/09/26 08:03:20;;;;;;;15.18;9.52;;;;;;;;;;5070906;28;20549;-58
2023/09/26 08:05:45;;;;;;;12.50;9.15;;;;;;;;;;5068885;28;20055;-58
2023/09/26 08:08:11;;;;;;;12.63;9.00;;;;;;;;;;5070384;28;20009;-59
2023/09/26 08:10:37;;;;;;;13.75;9.48;;;;;;;;;;5068428;28;20431;-58
2023/09/26 08:13:03;;;;;;;11.50;9.77;;;;;;;;;;5070581;28;20024;-58
2023/09/26 08:15:31;;;;;;;11.82;8.55;;;;;;;;;;5068811;28;20032;-58
2023/09/26 08:17:56;;;;;;;10.32;8.35;;;;;;;;;;5070293;28;20021;-58
2023/09/26 08:20:21;;;;;;;12.82;7.30;;;;;;;;;;5068860;28;20037;-59
2023/09/26 08:22:46;;;;;;;9.87;7.87;;;;;;;;;;5061635;28;20024;-58
2023/09/26 08:25:11;;;;;;;9.25;7.90;;;;;;;;;;5066653;28;20036;-57
2023/09/26 08:27:36;;;;;;;18.85;9.65;;;;;;;;;;5070030;28;20024;-58
2023/09/26 08:30:02;;;;;;;12.33;9.07;;;;;;;;;;5068465;28;20031;-64
2023/09/26 08:32:27;;;;;;;23.38;9.65;;;;;;;;;;5070126;28;20421;-58
2023/09/26 08:34:52;;;;;;;14.47;10.63;;;;;;;;;;5069803;28;20110;-58
2023/09/26 08:37:17;;;;;;;11.68;7.40;;;;;;;;;;5068456;28;20024;-58
2023/09/26 08:39:47;;;;;;;9.70;8.70;;;;;;;;;;5069176;28;20097;-58
2023/09/26 08:42:21;;;;;;;9.85;7.95;;;;;;;;;;5068397;28;20487;-59
2023/09/26 08:44:46;;;;;;;10.45;7.80;;;;;;;;;;5068906;28;20395;-59
2023/09/26 08:47:12;;;;;;;9.55;7.28;;;;;;;;;;5067310;28;20066;-57
2023/09/26 08:49:40;;;;;;;15.02;8.90;;;;;;;;;;5060938;28;20077;-60
2023/09/26 08:52:06;;;;;;;11.10;7.70;;;;;;;;;;5066799;28;20178;-58
2023/09/26 08:54:31;;;;;;;9.93;6.10;;;;;;;;;;5069457;28;20511;-57
2023/09/26 08:56:57;;;;;;;8.50;7.37;;;;;;;;;;5067878;28;20036;-58
2023/09/26 08:59:22;;;;;;;9.88;7.22;;;;;;;;;;5069142;28;20028;-58
2023/09/26 09:01:50;;;;;;;9.20;5.93;;;;;;;;;;5067924;28;20036;-58
2023/09/26 09:04:17;;;;;;;10.48;6.75;;;;;;;;;;5074225;28;20417;-58
2023/09/26 09:06:43;;;;;;;11.43;6.80;;;;;;;;;;5072559;28;20514;-59
2023/09/26 09:09:09;;;;;;;7.70;6.93;;;;;;;;;;5073700;28;20016;-58
2023/09/26 09:11:34;;;;;;;8.50;6.72;;;;;;;;;;5072687;28;20066;-58
2023/09/26 09:13:59;;;;;;;11.13;7.83;;;;;;;;;;5073824;28;20410;-58
2023/09/26 09:16:24;;;;;;;8.32;5.78;;;;;;;;;;5072067;28;20046;-58
2023/09/26 09:18:50;;;;;;;10.73;6.40;;;;;;;;;;5073590;28;20052;-58
2023/09/26 09:21:21;;;;;;;8.35;5.45;;;;;;;;;;5072148;28;20109;-59
2023/09/26 09:23:47;;;;;;;6.28;5.43;;;;;;;;;;5073209;28;20021;-59
2023/09/26 09:26:12;;;;;;;8.65;6.63;;;;;;;;;;5072187;28;20120;-58
2023/09/26 09:28:37;;;;;;;6.82;5.60;;;;;;;;;;5073654;28;20032;-59
2023/09/26 09:31:02;;;;;;;9.93;7.60;;;;;;;;;;5071742;28;20038;-59
2023/09/26 09:33:28;;;;;;;8.70;6.68;;;;;;;;;;5073323;28;20127;-59
2023/09/26 09:35:53;;;;;;;8.07;5.85;;;;;;;;;;5071946;28;20028;-59
2023/09/26 09:38:18;;;;;;;8.57;6.20;;;;;;;;;;5073127;28;20021;-59
2023/09/26 09:40:43;;;;;;;6.15;5.07;;;;;;;;;;5071798;28;20464;-60
2023/09/26 09:43:08;;;;;;;9.00;5.38;;;;;;;;;;5073330;28;20070;-58
2023/09/26 09:45:36;;;;;;;8.00;6.13;;;;;;;;;;5071251;28;20028;-59
2023/09/26 09:48:03;;;;;;;9.23;6.82;;;;;;;;;;5073386;28;20032;-59
2023/09/26 09:50:30;;;;;;;8.63;6.80;;;;;;;;;;5071876;28;20040;-59
2023/09/26 09:52:58;;;;;;;8.48;5.93;;;;;;;;;;5072391;28;20020;-59
2023/09/26 09:55:28;;;;;;;10.23;4.70;;;;;;;;;;5071632;28;20399;-59
2023/09/26 09:57:55;;;;;;;7.32;4.68;;;;;;;;;;5072942;28;20595;-59
2023/09/26 10:00:24;;;;;;;6.97;4.78;;;;;;;;;;5065855;28;20088;-59
2023/09/26 10:02:50;;;;;;;14.07;5.30;;;;;;;;;;5072735;28;20020;-59
2023/09/26 10:05:19;;;;;;;7.00;5.28;;;;;;;;;;5071455;28;20039;-59
2023/09/26 10:07:45;;;;;;;10.40;5.55;;;;;;;;;;5072558;28;20017;-58
2023/09/26 10:10:11;;;;;;;5.53;4.57;;;;;;;;;;5071643;28;20091;-58
2023/09/26 10:12:37;;;;;;;9.18;6.47;;;;;;;;;;5070006;28;20017;-58
2023/09/26 10:15:03;;;;;;;8.10;5.22;;;;;;;;;;5067871;28;20078;-58
2023/09/26 10:17:28;;;;;;;9.02;4.90;;;;;;;;;;5072085;28;20017;-58
2023/09/26 10:19:54;;;;;;;6.30;5.37;;;;;;;;;;5071824;28;20030;-72
2023/09/26 10:22:20;;;;;;;8.82;4.85;;;;;;;;;;5069517;28;20032;-59
2023/09/26 10:24:46;;;;;;;9.82;6.15;;;;;;;;;;5071535;28;20534;-59
2023/09/26 10:27:11;;;;;;;7.88;5.30;;;;;;;;;;5069661;28;20037;-69
2023/09/26 10:29:37;;;;;;;6.10;4.77;;;;;;;;;;5070584;28;20459;-59
2023/09/26 10:32:06;;;;;;;6.07;4.70;;;;;;;;;;5070111;28;20837;-59
2023/09/26 10:34:36;;;;;;;9.35;4.00;;;;;;;;;;5070836;28;20077;-58
2023/09/26 10:37:03;;;;;;;12.52;4.40;;;;;;;;;;5068779;28;20732;-58
2023/09/26 10:39:34;;;;;;;5.75;4.63;;;;;;;;;;5070677;28;20043;-58
2023/09/26 10:42:12;;;;;;;8.07;4.22;;;;;;;;;;5069889;28;20040;-58
2023/09/26 10:44:38;;;;;;;7.68;5.07;;;;;;;;;;5066409;28;20063;-58
2023/09/26 10:47:04;;;;;;;5.22;4.72;;;;;;;;;;5068109;28;20060;-58
2023/09/26 10:49:30;;;;;;;5.07;3.95;;;;;;;;;;5070895;28;20048;-58
2023/09/26 10:51:55;;;;;;;4.88;3.45;;;;;;;;;;5068301;28;20514;-58
2023/09/26 10:54:21;;;;;;;8.52;4.90;;;;;;;;;;5070668;28;20085;-58
2023/09/26 10:56:47;;;;;;;4.30;3.90;;;;;;;;;;5069476;28;20028;-58
2023/09/26 10:59:15;;;;;;;6.50;4.75;;;;;;;;;;5071387;28;20049;-58
2023/09/26 11:01:40;;;;;;;2.80;2.60;;;;;;;;;;5069824;28;20032;-59
2023/09/26 11:04:06;;;;;;;6.55;3.63;;;;;;;;;;5069971;28;20031;-58
2023/09/26 11:06:31;;;;;;;4.18;3.70;;;;;;;;;;5069678;28;20032;-58
2023/09/26 11:08:57;;;;;;;5.67;2.97;;;;;;;;;;5071072;28;20021;-58
2023/09/26 11:11:22;;;;;;;10.45;3.50;;;;;;;;;;5069921;28;20029;-71
2023/09/26 11:13:47;;;;;;;7.10;3.23;;;;;;;;;;5070417;28;20039;-58
2023/09/26 11:16:12;;;;;;;7.63;4.90;;;;;;;;;;5069565;28;20028;-58
2023/09/26 11:18:37;;;;;;;4.25;3.35;;;;;;;;;;5070973;28;20040;-58
2023/09/26 11:21:03;;;;;;;4.38;2.80;;;;;;;;;;5069275;28;20507;-58
2023/09/26 11:23:34;;;;;;;9.02;3.25;;;;;;;;;;5070880;28;20021;-58
2023/09/26 11:26:03;;;;;;;3.00;2.33;;;;;;;;;;5068715;28;20032;-57
2023/09/26 11:28:28;;;;;;;4.20;2.67;;;;;;;;;;5070461;28;20481;-57
2023/09/26 11:30:54;;;;;;;7.00;2.72;;;;;;;;;;5069147;28;20032;-57
2023/09/26 11:33:20;;;;;;;5.53;3.17;;;;;;;;;;5070572;28;20098;-59
2023/09/26 11:35:45;;;;;;;4.47;2.50;;;;;;;;;;5068990;28;20445;-72
2023/09/26 11:38:11;;;;;;;6.82;3.30;;;;;;;;;;5070998;28;20031;-58
2023/09/26 11:40:36;;;;;;;3.75;3.17;;;;;;;;;;5069045;28;20119;-58
2023/09/26 11:43:03;;;;;;;2.33;2.07;;;;;;;;;;5069988;28;20329;-58
2023/09/26 11:45:28;;;;;;;3.17;2.58;;;;;;;;;;5069426;28;20029;-57
2023/09/26 11:47:54;;;;;;;7.75;3.50;;;;;;;;;;5070361;28;20402;-58
2023/09/26 11:50:20;;;;;;;5.10;3.13;;;;;;;;;;5068811;28;20036;-64
2023/09/26 11:52:45;;;;;;;6.15;3.25;;;;;;;;;;5070094;28;20023;-58
2023/09/26 11:55:14;;;;;;;5.93;3.20;;;;;;;;;;5069080;28;20058;-58
2023/09/26 11:57:39;;;;;;;8.82;3.50;;;;;;;;;;5069736;28;20016;-58
2023/09/26 12:00:11;;;;;;;3.67;2.67;;;;;;;;;;5068932;28;20019;-58
2023/09/26 12:02:36;;;;;;;5.82;3.58;;;;;;;;;;5070264;28;20095;-57
2023/09/26 12:05:01;;;;;;;7.03;2.72;;;;;;;;;;5068427;28;20558;-57
2023/09/26 12:07:26;;;;;;;3.73;2.83;;;;;;;;;;5070242;28;20029;-57
2023/09/26 12:09:52;;;;;;;5.53;4.30;;;;;;;;;;5070077;28;20536;-57
2023/09/26 12:12:17;;;;;;;10.77;4.00;;;;;;;;;;5068301;28;20047;-66
2023/09/26 12:14:46;;;;;;;5.40;2.33;;;;;;;;;;5069975;28;20094;-58
2023/09/26 12:17:11;;;;;;;5.53;3.28;;;;;;;;;;5068654;28;20086;-58
2023/09/26 12:19:36;;;;;;;9.38;2.50;;;;;;;;;;5069779;28;20028;-58
2023/09/26 12:22:01;;;;;;;3.75;3.13;;;;;;;;;;5065973;28;20032;-58
2023/09/26 12:24:27;;;;;;;6.10;3.55;;;;;;;;;;5068897;28;20017;-58
2023/09/26 12:26:52;;;;;;;6.20;3.30;;;;;;;;;;5066946;28;20560;-58
2023/09/26 12:29:17;;;;;;;12.45;3.42;;;;;;;;;;5069694;28;20087;-68
2023/09/26 12:31:43;;;;;;;5.95;4.28;;;;;;;;;;5067399;28;20044;-58
2023/09/26 12:34:08;;;;;;;4.72;3.95;;;;;;;;;;5069152;28;20094;-58
2023/09/26 12:36:33;;;;;;;4.47;3.30;;;;;;;;;;5068233;28;20503;-58
2023/09/26 12:38:59;;;;;;;8.77;3.85;;;;;;;;;;5069592;28;20020;-58
2023/09/26 12:41:25;;;;;;;4.07;3.30;;;;;;;;;;5068539;28;20048;-58
2023/09/26 12:43:51;;;;;;;8.85;3.33;;;;;;;;;;5069690;28;20039;-57
2023/09/26 12:46:16;;;;;;;4.30;3.20;;;;;;;;;;5068526;28;20028;-59
2023/09/26 12:48:41;;;;;;;7.13;4.07;;;;;;;;;;5069628;28;20480;-57
2023/09/26 12:51:06;;;;;;;3.67;3.05;;;;;;;;;;5067961;28;20036;-57
2023/09/26 12:53:32;;;;;;;4.50;3.10;;;;;;;;;;5069730;28;20028;-57
2023/09/26 12:55:57;;;;;;;3.57;2.70;;;;;;;;;;5068039;28;20448;-57
2023/09/26 12:58:22;;;;;;;7.67;3.37;;;;;;;;;;5069213;28;20051;-57
2023/09/26 13:00:47;;;;;;;4.30;3.30;;;;;;;;;;5067432;28;20123;-57
2023/09/26 13:03:13;;;;;;;4.38;3.40;;;;;;;;;;5069301;28;20028;-57
2023/09/26 13:05:39;;;;;;;7.70;3.22;;;;;;;;;;5067162;28;20102;-62
2023/09/26 13:08:04;;;;;;;5.10;3.45;;;;;;;;;;5068825;28;20020;-57
2023/09/26 13:10:31;;;;;;;7.93;3.93;;;;;;;;;;5067460;28;20114;-57
2023/09/26 13:12:56;;;;;;;7.60;3.20;;;;;;;;;;5068139;28;20027;-57
2023/09/26 13:15:21;;;;;;;14.73;4.20;;;;;;;;;;5067580;28;20033;-57
2023/09/26 13:17:46;;;;;;;7.85;3.33;;;;;;;;;;5068797;28;20047;-62
2023/09/26 13:20:11;;;;;;;9.65;3.67;;;;;;;;;;5067731;28;20055;-57
2023/09/26 13:22:37;;;;;;;6.05;3.65;;;;;;;;;;5069441;28;20415;-57
2023/09/26 13:25:03;;;;;;;7.88;4.05;;;;;;;;;;5068236;28;20016;-57
2023/09/26 13:27:28;;;;;;;4.53;2.75;;;;;;;;;;5069253;28;20373;-57
2023/09/26 13:29:53;;;;;;;11.75;4.15;;;;;;;;;;5069368;28;20038;-57
2023/09/26 13:32:18;;;;;;;5.20;3.67;;;;;;;;;;5067974;28;20060;-57
2023/09/26 13:34:44;;;;;;;6.03;3.73;;;;;;;;;;5068752;28;20403;-57
2023/09/26 13:37:09;;;;;;;5.95;3.38;;;;;;;;;;5066442;28;20045;-57
2023/09/26 13:39:34;;;;;;;5.30;3.50;;;;;;;;;;5067059;28;20056;-57
2023/09/26 13:42:00;;;;;;;11.77;5.37;;;;;;;;;;5067452;28;20039;-70
2023/09/26 13:44:25;;;;;;;6.03;3.90;;;;;;;;;;5069079;28;20023;-58
2023/09/26 13:46:50;;;;;;;9.27;5.15;;;;;;;;;;5067717;28;20057;-58
2023/09/26 13:49:16;;;;;;;7.03;4.03;;;;;;;;;;5070190;28;20059;-58
2023/09/26 13:51:41;;;;;;;9.18;4.00;;;;;;;;;;5070986;28;20512;-57
2023/09/26 13:54:06;;;;;;;2.92;2.60;;;;;;;;;;5072731;28;20059;-58
2023/09/26 13:56:31;;;;;;;7.00;4.20;;;;;;;;;;5071203;28;20037;-57
2023/09/26 13:58:57;;;;;;;9.40;3.92;;;;;;;;;;5072544;28;20020;-57
2023/09/26 14:01:22;;;;;;;8.00;3.47;;;;;;;;;;5071307;28;20037;-58
2023/09/26 14:03:47;;;;;;;5.60;3.30;;;;;;;;;;5071687;28;20024;-58
2023/09/26 14:06:12;;;;;;;14.03;4.17;;;;;;;;;;5071170;28;20449;-58
2023/09/26 14:08:38;;;;;;;13.33;4.13;;;;;;;;;;5072218;28;20431;-58
2023/09/26 14:11:05;;;;;;;13.43;5.18;;;;;;;;;;5070827;28;20033;-58
2023/09/26 14:13:30;;;;;;;6.47;3.78;;;;;;;;;;5071015;28;20020;-58
2023/09/26 14:15:56;;;;;;;9.48;2.67;;;;;;;;;;5070740;28;20070;-58
2023/09/26 14:18:21;;;;;;;5.88;3.67;;;;;;;;;;5072083;28;20021;-62